Terminal Aerodrome Forecast
Issued by NWS Portland, OR

Home | Current Version | Previous Version | Text Only | Print | Product List | Glossary On
Versions: 1 2 3 4 5 6 7 8 9 10 11 12
000
FTUS46 KPQR 172320
TAFSLE
TAF
KSLE 172320Z 1800/1824 15009KT P6SM -RA BKN050 OVC080
     FM180200 18010G18KT 5SM -RA BR SCT020 BKN035 OVC050
     FM180500 19014G22KT P6SM -SHRA SCT020 OVC040
     FM180900 20014G22KT P6SM -SHRA SCT015 BKN035 OVC050
     FM181500 20015G23KT 6SM -RA BR SCT020 OVC040
     FM181900 20015G25KT P6SM -SHRA SCT020 BKN035 BKN060=

USA.gov is the U.S. government's official web portal to all federal, state and local government web resources and services.